TimeCDT,TemperatureF,Dew PointF,Humidity,Sea Level PressureIn,VisibilityMPH,Wind Direction,Wind SpeedMPH,Gust SpeedMPH,PrecipitationIn,Events,Conditions,WindDirDegrees,DateUTC
12:15 AM,78.8,69.8,74,30.00,10.0,East,6.9,-,N/A,,Overcast,90,2013-08-24 05:15:00
12:35 AM,82.4,69.8,66,30.00,10.0,East,5.8,-,N/A,,Mostly Cloudy,100,2013-08-24 05:35:00
12:55 AM,82.4,69.8,66,30.00,10.0,East,5.8,-,N/A,,Partly Cloudy,100,2013-08-24 05:55:00
1:15 AM,80.6,69.8,70,30.00,10.0,East,5.8,-,N/A,,Partly Cloudy,90,2013-08-24 06:15:00
1:35 AM,80.6,69.8,70,30.00,10.0,East,4.6,-,N/A,,Scattered Clouds,100,2013-08-24 06:35:00
1:55 AM,80.6,69.8,70,30.00,10.0,East,3.5,-,N/A,,Partly Cloudy,80,2013-08-24 06:55:00
2:15 AM,77.0,69.8,78,29.99,10.0,Calm,Calm,-,N/A,,Clear,0,2013-08-24 07:15:00
2:35 AM,75.2,69.8,83,30.00,10.0,Calm,Calm,-,N/A,,Clear,0,2013-08-24 07:35:00
2:55 AM,77.0,69.8,78,30.00,10.0,Calm,Calm,-,N/A,,Clear,0,2013-08-24 07:55:00
3:15 AM,75.2,69.8,83,30.00,10.0,Calm,Calm,-,N/A,,Clear,0,2013-08-24 08:15:00
3:35 AM,75.2,69.8,83,30.00,10.0,East,4.6,-,N/A,,Clear,90,2013-08-24 08:35:00
3:55 AM,75.2,69.8,83,30.00,10.0,Calm,Calm,-,N/A,,Clear,0,2013-08-24 08:55:00
4:15 AM,75.2,69.8,83,30.00,10.0,ESE,5.8,-,N/A,,Clear,110,2013-08-24 09:15:00
4:35 AM,77.0,69.8,78,30.00,10.0,ESE,6.9,-,N/A,,Clear,110,2013-08-24 09:35:00
4:55 AM,77.0,69.8,78,30.00,10.0,East,5.8,-,N/A,,Clear,100,2013-08-24 09:55:00
5:15 AM,75.2,69.8,83,30.01,9.0,ESE,4.6,-,N/A,,Clear,110,2013-08-24 10:15:00
5:35 AM,75.2,69.8,83,30.01,10.0,SE,4.6,-,N/A,,Clear,130,2013-08-24 10:35:00
5:55 AM,75.2,71.6,89,30.02,10.0,ESE,4.6,-,N/A,,Clear,110,2013-08-24 10:55:00
6:15 AM,75.2,69.8,83,30.02,10.0,ESE,4.6,-,N/A,,Clear,110,2013-08-24 11:15:00
6:35 AM,75.2,69.8,83,30.03,10.0,East,3.5,-,N/A,,Clear,100,2013-08-24 11:35:00
6:55 AM,73.4,71.6,94,30.03,10.0,East,4.6,-,N/A,,Clear,100,2013-08-24 11:55:00
7:15 AM,75.2,71.6,89,30.04,10.0,ESE,3.5,-,N/A,,Clear,110,2013-08-24 12:15:00
7:35 AM,75.2,71.6,89,30.05,10.0,ESE,3.5,-,N/A,,Clear,120,2013-08-24 12:35:00
7:55 AM,77.0,71.6,83,30.05,10.0,Calm,Calm,-,N/A,,Clear,0,2013-08-24 12:55:00
8:15 AM,78.8,73.4,83,30.06,10.0,East,3.5,-,N/A,,Clear,80,2013-08-24 13:15:00
8:35 AM,80.6,73.4,79,30.07,10.0,SE,4.6,-,N/A,,Clear,140,2013-08-24 13:35:00
8:55 AM,80.6,73.4,79,30.07,10.0,SE,4.6,-,N/A,,Clear,130,2013-08-24 13:55:00
9:15 AM,80.6,73.4,79,30.07,10.0,ESE,3.5,-,N/A,,Clear,120,2013-08-24 14:15:00
9:35 AM,82.4,73.4,74,30.07,10.0,South,4.6,-,N/A,,Clear,170,2013-08-24 14:35:00
9:55 AM,84.2,73.4,70,30.07,10.0,ESE,4.6,-,N/A,,Clear,110,2013-08-24 14:55:00
10:15 AM,87.8,73.4,62,30.07,10.0,East,5.8,-,N/A,,Clear,80,2013-08-24 15:15:00
10:35 AM,89.6,73.4,59,30.08,10.0,East,6.9,-,N/A,,Clear,100,2013-08-24 15:35:00
10:55 AM,89.6,73.4,59,30.08,10.0,East,8.1,-,N/A,,Scattered Clouds,100,2013-08-24 15:55:00
11:15 AM,89.6,71.6,55,30.07,10.0,ESE,8.1,-,N/A,,Mostly Cloudy,120,2013-08-24 16:15:00
11:35 AM,91.4,71.6,52,30.07,10.0,East,11.5,-,N/A,,Mostly Cloudy,80,2013-08-24 16:35:00
11:55 AM,91.4,69.8,49,30.06,10.0,ENE,8.1,-,N/A,,Scattered Clouds,60,2013-08-24 16:55:00
12:15 PM,93.2,69.8,46,30.06,10.0,East,11.5,16.1,N/A,,Mostly Cloudy,90,2013-08-24 17:15:00
12:35 PM,93.2,69.8,46,30.05,10.0,NE,6.9,-,N/A,,Scattered Clouds,50,2013-08-24 17:35:00
12:55 PM,93.2,69.8,46,30.04,10.0,NE,9.2,-,N/A,,Scattered Clouds,40,2013-08-24 17:55:00
1:15 PM,95.0,69.8,44,30.04,10.0,East,10.4,-,N/A,,Mostly Cloudy,90,2013-08-24 18:15:00
1:35 PM,96.8,68.0,39,30.03,10.0,ENE,4.6,17.3,N/A,,Mostly Cloudy,60,2013-08-24 18:35:00
1:55 PM,95.0,66.2,39,30.02,10.0,East,10.4,-,N/A,,Scattered Clouds,100,2013-08-24 18:55:00
2:15 PM,96.8,66.2,37,30.02,10.0,East,11.5,17.3,N/A,,Partly Cloudy,90,2013-08-24 19:15:00
2:35 PM,98.6,66.2,35,30.01,10.0,ENE,9.2,-,N/A,,Partly Cloudy,70,2013-08-24 19:35:00
2:55 PM,98.6,66.2,35,30.01,10.0,East,12.7,21.9,N/A,,Scattered Clouds,90,2013-08-24 19:55:00
3:15 PM,95.0,64.4,36,30.00,10.0,ESE,10.4,19.6,N/A,,Partly Cloudy,110,2013-08-24 20:15:00
3:35 PM,98.6,64.4,32,30.00,10.0,East,10.4,19.6,N/A,,Partly Cloudy,100,2013-08-24 20:35:00
3:55 PM,98.6,64.4,32,29.98,10.0,East,11.5,19.6,N/A,,Clear,100,2013-08-24 20:55:00
4:15 PM,96.8,64.4,34,29.98,10.0,East,6.9,-,N/A,,Partly Cloudy,80,2013-08-24 21:15:00
4:35 PM,98.6,64.4,32,29.98,10.0,ESE,11.5,18.4,N/A,,Partly Cloudy,120,2013-08-24 21:35:00
4:55 PM,95.0,64.4,36,29.98,10.0,East,5.8,16.1,N/A,,Partly Cloudy,100,2013-08-24 21:55:00
5:15 PM,98.6,64.4,32,29.97,10.0,East,13.8,19.6,N/A,,Partly Cloudy,90,2013-08-24 22:15:00
5:35 PM,96.8,64.4,34,29.97,10.0,East,12.7,19.6,N/A,,Partly Cloudy,90,2013-08-24 22:35:00
5:55 PM,96.8,64.4,34,29.97,10.0,East,12.7,17.3,N/A,,Partly Cloudy,80,2013-08-24 22:55:00
6:15 PM,95.0,64.4,36,29.97,10.0,SE,10.4,-,N/A,,Partly Cloudy,130,2013-08-24 23:15:00
6:35 PM,93.2,64.4,38,29.97,10.0,ESE,12.7,16.1,N/A,,Clear,120,2013-08-24 23:35:00
6:55 PM,93.2,64.4,38,29.97,10.0,East,13.8,18.4,N/A,,Clear,100,2013-08-24 23:55:00
7:15 PM,91.4,64.4,41,29.98,10.0,ESE,8.1,-,N/A,,Clear,120,2013-08-25 00:15:00
7:35 PM,91.4,64.4,41,29.98,10.0,ESE,11.5,-,N/A,,Clear,110,2013-08-25 00:35:00
7:55 PM,89.6,64.4,43,29.99,10.0,ESE,8.1,-,N/A,,Clear,110,2013-08-25 00:55:00
8:15 PM,89.6,64.4,43,30.00,10.0,ESE,6.9,-,N/A,,Clear,110,2013-08-25 01:15:00
8:35 PM,87.8,64.4,46,30.00,10.0,ESE,5.8,-,N/A,,Clear,110,2013-08-25 01:35:00
8:55 PM,87.8,64.4,46,30.01,10.0,ESE,8.1,-,N/A,,Clear,110,2013-08-25 01:55:00
9:15 PM,86.0,64.4,48,30.02,10.0,East,5.8,-,N/A,,Clear,100,2013-08-25 02:15:00
9:35 PM,86.0,64.4,48,30.03,10.0,ESE,8.1,-,N/A,,Clear,110,2013-08-25 02:35:00
9:55 PM,84.2,64.4,51,30.04,10.0,East,5.8,-,N/A,,Clear,100,2013-08-25 02:55:00
10:15 PM,84.2,64.4,51,30.04,10.0,East,6.9,-,N/A,,Clear,100,2013-08-25 03:15:00
10:35 PM,84.2,66.2,55,30.04,10.0,ESE,8.1,-,N/A,,Clear,110,2013-08-25 03:35:00
10:55 PM,84.2,66.2,55,30.05,10.0,ESE,5.8,-,N/A,,Clear,110,2013-08-25 03:55:00
11:15 PM,82.4,66.2,58,30.06,10.0,ESE,6.9,-,N/A,,Clear,120,2013-08-25 04:15:00
11:35 PM,82.4,66.2,58,30.06,10.0,ESE,5.8,-,N/A,,Clear,120,2013-08-25 04:35:00
11:55 PM,82.4,66.2,58,30.06,10.0,ESE,6.9,-,N/A,,Clear,120,2013-08-25 04:55:00